Terminal Aerodrome Forecast
Issued by NWS

Home | Current Version | Previous Version | Text Only | Print | Product List | Glossary On
Versions: 1 2 3 4 5 6 7 8 9 10 11 12 13 14
000
FTAK31 PANC 272325
TAFAGK
TAF
PAGK 272325Z 2800/2824 02014G22KT P6SM FEW060 FEW120
     FM280600 35008KT P6SM SKC
     FM281900 01014G20KT P6SM FEW060 SCT120 BKN200=

USA.gov is the U.S. government's official web portal to all federal, state and local government web resources and services.